Time;durP1;ratioP1;P1;durP2;ratioP2;P2;SDS_P1;SDS_P2;PMS_P1;PMS_P2;Temp;Humidity;BMP_temperature;BMP_pressure;BME280_temperature;BME280_humidity;BME280_pressure;Samples;Min_cycle;Max_cycle;Signal;HPM_P1;HPM_P2
2022/06/25 00:02:06;;;;;;;6.05;3.40;;;;;;;;;;4971968;28;20469;-84
2022/06/25 00:07:15;;;;;;;5.88;3.88;;;;;;;;;;4991570;28;20117;-85
2022/06/25 00:09:41;;;;;;;6.95;4.20;;;;;;;;;;4973771;28;20116;-84
2022/06/25 00:14:51;;;;;;;5.85;4.25;;;;;;;;;;4985982;28;20614;-83
2022/06/25 00:17:18;;;;;;;6.43;4.30;;;;;;;;;;4972489;28;20038;-84
2022/06/25 00:19:44;;;;;;;;;;;;;;;;;;4977897;28;20044;-83
2022/06/25 00:22:09;;;;;;;6.87;3.97;;;;;;;;;;4974547;28;19926;-85
2022/06/25 00:24:34;;;;;;;5.20;4.10;;;;;;;;;;4989367;28;20288;-85
2022/06/25 00:27:00;;;;;;;7.55;4.25;;;;;;;;;;4997797;28;20034;-84
2022/06/25 00:29:28;;;;;;;5.53;4.15;;;;;;;;;;4986986;28;20501;-84
2022/06/25 00:31:53;;;;;;;6.78;4.22;;;;;;;;;;4987673;28;20064;-84
2022/06/25 00:34:19;;;;;;;5.72;4.07;;;;;;;;;;4988992;28;20038;-84
2022/06/25 00:36:45;;;;;;;5.45;4.05;;;;;;;;;;4989734;28;20072;-85
2022/06/25 00:39:31;;;;;;;5.57;4.07;;;;;;;;;;4988888;28;20034;-85
2022/06/25 00:41:57;;;;;;;6.32;3.63;;;;;;;;;;4958056;28;20118;-84
2022/06/25 00:44:22;;;;;;;5.18;3.95;;;;;;;;;;4943245;28;20186;-84
2022/06/25 00:46:48;;;;;;;6.35;3.90;;;;;;;;;;4938422;28;20045;-85
2022/06/25 00:49:13;;;;;;;8.00;4.25;;;;;;;;;;4939275;28;20129;-84
2022/06/25 00:51:40;;;;;;;5.65;4.22;;;;;;;;;;4957959;28;20118;-84
2022/06/25 00:54:28;;;;;;;5.90;4.28;;;;;;;;;;4942857;28;20129;-84
2022/06/25 00:56:56;;;;;;;7.03;4.40;;;;;;;;;;4905048;29;20096;-84
2022/06/25 00:59:28;;;;;;;5.80;4.15;;;;;;;;;;4897481;29;20156;-85
2022/06/25 01:01:54;;;;;;;5.50;4.15;;;;;;;;;;4900314;29;20119;-83
2022/06/25 01:04:19;;;;;;;9.07;4.22;;;;;;;;;;4876248;29;20046;-84
2022/06/25 01:06:45;;;;;;;6.00;4.30;;;;;;;;;;4906047;29;20932;-85
2022/06/25 01:09:10;;;;;;;6.88;4.57;;;;;;;;;;4916806;29;20050;-85
2022/06/25 01:11:36;;;;;;;7.00;4.25;;;;;;;;;;4898687;29;20100;-86
2022/06/25 01:14:11;;;;;;;6.28;4.38;;;;;;;;;;4916980;29;20047;-83
2022/06/25 01:16:36;;;;;;;6.25;4.90;;;;;;;;;;4875680;29;20058;-85
2022/06/25 01:19:26;;;;;;;5.95;4.60;;;;;;;;;;4903914;28;20043;-84
2022/06/25 01:21:51;;;;;;;6.28;4.30;;;;;;;;;;4887866;29;20036;-84
2022/06/25 01:24:17;;;;;;;7.35;4.75;;;;;;;;;;4885084;29;20068;-85
2022/06/25 01:26:42;;;;;;;7.72;5.50;;;;;;;;;;4883795;29;20096;-85
2022/06/25 01:29:08;;;;;;;8.30;5.35;;;;;;;;;;4884091;29;20503;-85
2022/06/25 01:31:35;;;;;;;6.45;4.95;;;;;;;;;;4893333;29;20497;-85
2022/06/25 01:34:00;;;;;;;7.47;5.40;;;;;;;;;;4899572;29;20036;-85
2022/06/25 01:36:26;;;;;;;10.23;6.13;;;;;;;;;;4909083;29;20106;-85
2022/06/25 01:38:51;;;;;;;9.18;6.45;;;;;;;;;;4893676;29;20518;-84
2022/06/25 01:41:17;;;;;;;8.07;6.50;;;;;;;;;;4907361;29;20036;-85
2022/06/25 01:43:43;;;;;;;8.35;5.90;;;;;;;;;;4906692;29;20130;-85
2022/06/25 01:46:08;;;;;;;8.90;6.22;;;;;;;;;;4911318;29;20127;-85
2022/06/25 01:48:34;;;;;;;8.73;6.65;;;;;;;;;;4913218;29;20108;-85
2022/06/25 01:50:59;;;;;;;9.85;6.40;;;;;;;;;;4911626;29;20040;-84
2022/06/25 01:53:28;;;;;;;8.80;6.78;;;;;;;;;;4909240;29;20464;-85
2022/06/25 01:55:54;;;;;;;8.70;6.35;;;;;;;;;;4912738;29;20123;-85
2022/06/25 01:58:19;;;;;;;8.98;6.78;;;;;;;;;;4936253;28;20124;-84
2022/06/25 02:00:45;;;;;;;10.05;7.15;;;;;;;;;;4992092;28;20115;-85
2022/06/25 02:03:11;;;;;;;9.65;7.22;;;;;;;;;;5002756;28;20088;-85
2022/06/25 02:08:20;;;;;;;10.18;7.75;;;;;;;;;;5004230;28;20501;-82
2022/06/25 02:10:46;;;;;;;9.73;7.13;;;;;;;;;;4991854;28;20037;-86
2022/06/25 02:13:12;;;;;;;9.68;7.40;;;;;;;;;;4992693;28;20099;-86
2022/06/25 02:15:37;;;;;;;9.90;7.22;;;;;;;;;;5007517;28;20485;-85
2022/06/25 02:18:04;;;;;;;9.30;7.28;;;;;;;;;;4994296;28;20038;-85
2022/06/25 02:20:29;;;;;;;9.15;6.88;;;;;;;;;;4993177;28;20030;-85
2022/06/25 02:22:54;;;;;;;10.38;7.35;;;;;;;;;;5007605;28;20479;-84
2022/06/25 02:25:20;;;;;;;9.07;7.07;;;;;;;;;;5007618;28;20036;-85
2022/06/25 02:27:45;;;;;;;10.40;7.68;;;;;;;;;;5008078;28;20034;-85
2022/06/25 02:30:11;;;;;;;9.93;7.30;;;;;;;;;;4993821;28;20501;-85
2022/06/25 02:32:36;;;;;;;11.60;7.45;;;;;;;;;;4995860;28;20068;-85
2022/06/25 02:35:02;;;;;;;10.02;7.88;;;;;;;;;;4983595;28;20049;-85
2022/06/25 02:37:28;;;;;;;10.15;7.57;;;;;;;;;;4984212;28;20026;-85
2022/06/25 02:39:53;;;;;;;10.57;8.23;;;;;;;;;;4996260;28;20034;-85
2022/06/25 02:42:18;;;;;;;12.80;7.88;;;;;;;;;;4985218;28;20057;-85
2022/06/25 02:44:44;;;;;;;9.70;7.47;;;;;;;;;;4991852;28;20492;-85
2022/06/25 02:47:09;;;;;;;9.32;7.63;;;;;;;;;;5006298;28;20029;-85
2022/06/25 02:49:34;;;;;;;10.15;7.65;;;;;;;;;;5005996;28;20528;-85
2022/06/25 02:52:00;;;;;;;9.55;7.40;;;;;;;;;;4990433;28;20389;-85
2022/06/25 02:54:26;;;;;;;12.10;8.13;;;;;;;;;;4991754;28;20034;-85
2022/06/25 02:59:41;;;;;;;9.85;7.72;;;;;;;;;;5007206;28;20061;-85
2022/06/25 03:02:07;;;;;;;10.20;7.78;;;;;;;;;;4984387;28;20034;-85
2022/06/25 03:04:32;;;;;;;10.20;7.95;;;;;;;;;;4994978;28;20038;-85
2022/06/25 03:06:58;;;;;;;10.23;7.38;;;;;;;;;;5006508;28;20091;-85
2022/06/25 03:09:23;;;;;;;9.32;7.22;;;;;;;;;;4990070;28;20030;-86
2022/06/25 03:11:48;;;;;;;8.85;7.38;;;;;;;;;;5006053;28;20030;-86
2022/06/25 03:14:17;;;;;;;10.98;8.70;;;;;;;;;;4991152;28;20038;-85
2022/06/25 03:16:43;;;;;;;10.55;7.53;;;;;;;;;;4999286;28;20029;-84
2022/06/25 03:19:09;;;;;;;11.38;7.68;;;;;;;;;;4990548;28;20433;-84
2022/06/25 03:21:34;;;;;;;10.65;7.88;;;;;;;;;;4998823;28;20173;-84
2022/06/25 03:23:59;;;;;;;12.68;7.88;;;;;;;;;;4991083;28;20168;-84
2022/06/25 03:26:45;;;;;;;10.57;7.35;;;;;;;;;;4992833;28;20584;-84
2022/06/25 03:29:11;;;;;;;10.45;7.95;;;;;;;;;;4944683;28;20126;-85
2022/06/25 03:31:36;;;;;;;11.02;8.45;;;;;;;;;;4932527;28;20035;-84
2022/06/25 03:34:01;;;;;;;9.82;8.27;;;;;;;;;;4949120;28;20388;-84
2022/06/25 03:36:27;;;;;;;9.70;7.47;;;;;;;;;;4929216;28;20039;-85
2022/06/25 03:38:52;;;;;;;9.65;7.88;;;;;;;;;;4943779;28;20039;-85
2022/06/25 03:41:33;;;;;;;9.80;7.45;;;;;;;;;;4945690;28;20121;-85
2022/06/25 03:44:06;;;;;;;11.02;8.18;;;;;;;;;;4928968;28;20054;-85
2022/06/25 03:46:33;;;;;;;11.15;7.90;;;;;;;;;;4946726;28;20574;-85
2022/06/25 03:48:59;;;;;;;10.95;8.32;;;;;;;;;;4944216;28;20470;-84
2022/06/25 03:51:24;;;;;;;10.35;8.40;;;;;;;;;;4927494;28;20521;-84
2022/06/25 03:53:50;;;;;;;12.05;8.60;;;;;;;;;;4960556;28;20171;-85
2022/06/25 03:56:15;;;;;;;10.52;8.60;;;;;;;;;;4941932;28;20027;-86
2022/06/25 03:58:40;;;;;;;10.02;8.45;;;;;;;;;;4942839;28;20035;-84
2022/06/25 04:01:06;;;;;;;13.07;8.48;;;;;;;;;;4942534;28;20047;-85
2022/06/25 04:03:31;;;;;;;11.15;8.88;;;;;;;;;;4959752;28;20034;-85
2022/06/25 04:05:57;;;;;;;11.43;9.00;;;;;;;;;;4985297;28;20030;-85
2022/06/25 04:08:23;;;;;;;12.32;9.35;;;;;;;;;;4988888;28;20037;-85
2022/06/25 04:10:49;;;;;;;12.10;9.20;;;;;;;;;;4989654;28;20037;-84
2022/06/25 04:13:14;;;;;;;14.40;9.40;;;;;;;;;;4989049;28;20038;-85
2022/06/25 04:15:40;;;;;;;12.75;9.88;;;;;;;;;;4987592;28;20040;-83
2022/06/25 04:18:05;;;;;;;14.57;9.60;;;;;;;;;;4988948;28;20040;-83
2022/06/25 04:20:31;;;;;;;11.00;8.85;;;;;;;;;;4986919;28;20126;-84
2022/06/25 04:22:56;;;;;;;10.68;8.82;;;;;;;;;;5004766;28;20034;-83
2022/06/25 04:25:22;;;;;;;11.85;9.30;;;;;;;;;;5005227;28;20497;-84
2022/06/25 04:30:31;;;;;;;12.65;9.38;;;;;;;;;;4999714;28;20269;-84
2022/06/25 04:32:56;;;;;;;12.38;9.40;;;;;;;;;;5004881;28;20559;-84
2022/06/25 04:35:22;;;;;;;12.77;9.73;;;;;;;;;;4988057;28;20112;-84
2022/06/25 04:37:47;;;;;;;11.30;9.60;;;;;;;;;;4991543;28;20034;-85
2022/06/25 04:40:13;;;;;;;11.90;10.05;;;;;;;;;;5004184;28;20505;-84
2022/06/25 04:42:39;;;;;;;13.48;9.30;;;;;;;;;;4988979;28;20461;-84
2022/06/25 04:45:05;;;;;;;11.68;9.40;;;;;;;;;;4990027;28;20040;-84
2022/06/25 04:47:30;;;;;;;12.52;9.73;;;;;;;;;;4984253;28;20033;-84
2022/06/25 04:49:55;;;;;;;10.95;9.05;;;;;;;;;;4983039;28;20085;-83
2022/06/25 04:52:21;;;;;;;12.77;9.68;;;;;;;;;;5004599;28;20432;-86
2022/06/25 04:54:46;;;;;;;12.35;9.20;;;;;;;;;;4993453;28;20386;-86
2022/06/25 04:57:11;;;;;;;11.48;9.18;;;;;;;;;;4988074;28;20545;-86
2022/06/25 04:59:37;;;;;;;11.90;9.15;;;;;;;;;;4989382;28;20451;-85
2022/06/25 05:02:02;;;;;;;11.95;8.40;;;;;;;;;;4988509;28;20041;-85
2022/06/25 05:04:28;;;;;;;10.98;9.40;;;;;;;;;;4985225;28;20124;-86
2022/06/25 05:06:53;;;;;;;11.98;9.20;;;;;;;;;;5004025;28;20034;-84
2022/06/25 05:09:18;;;;;;;12.02;9.50;;;;;;;;;;4992318;28;20038;-84
2022/06/25 05:11:44;;;;;;;12.60;9.40;;;;;;;;;;4994375;28;20103;-86
2022/06/25 05:14:09;;;;;;;12.13;9.23;;;;;;;;;;4991860;28;20033;-86
2022/06/25 05:16:35;;;;;;;11.02;9.07;;;;;;;;;;4994042;28;20037;-85
2022/06/25 05:19:00;;;;;;;11.13;8.52;;;;;;;;;;5005414;28;20668;-85
2022/06/25 05:21:26;;;;;;;13.23;9.73;;;;;;;;;;4987721;28;20430;-85
2022/06/25 05:23:51;;;;;;;11.60;9.48;;;;;;;;;;4959888;28;20046;-86
2022/06/25 05:26:17;;;;;;;10.98;8.98;;;;;;;;;;4975109;28;20402;-85
2022/06/25 05:28:42;;;;;;;11.73;8.82;;;;;;;;;;4969634;28;20121;-85
2022/06/25 05:31:08;;;;;;;9.90;8.57;;;;;;;;;;4956614;28;20066;-85
2022/06/25 05:33:33;;;;;;;10.82;8.85;;;;;;;;;;4975004;28;20049;-86
2022/06/25 05:35:59;;;;;;;11.25;8.35;;;;;;;;;;4974501;28;20034;-86
2022/06/25 05:38:24;;;;;;;9.95;8.50;;;;;;;;;;4958304;28;20141;-86
2022/06/25 05:40:49;;;;;;;9.90;8.55;;;;;;;;;;4975381;28;20023;-83
2022/06/25 05:43:15;;;;;;;9.63;7.80;;;;;;;;;;4974383;28;20038;-86
2022/06/25 05:45:40;;;;;;;11.20;8.10;;;;;;;;;;4958252;28;20048;-85
2022/06/25 05:48:06;;;;;;;8.93;7.38;;;;;;;;;;4958401;28;20129;-86
2022/06/25 05:50:32;;;;;;;9.85;7.53;;;;;;;;;;4973720;28;20061;-86
2022/06/25 05:52:57;;;;;;;10.25;7.88;;;;;;;;;;4960878;28;20105;-86
2022/06/25 05:55:24;;;;;;;9.98;7.82;;;;;;;;;;4967789;28;20442;-87
2022/06/25 05:57:50;;;;;;;10.40;8.02;;;;;;;;;;4957893;28;20106;-86
2022/06/25 06:00:16;;;;;;;10.30;7.72;;;;;;;;;;4956748;28;20460;-84
2022/06/25 06:02:41;;;;;;;8.85;7.43;;;;;;;;;;4985045;28;20034;-86
2022/06/25 06:05:07;;;;;;;10.15;7.70;;;;;;;;;;4973678;28;20035;-86
2022/06/25 06:07:36;;;;;;;9.35;7.40;;;;;;;;;;4974266;28;20114;-86
2022/06/25 06:10:01;;;;;;;10.13;7.95;;;;;;;;;;4960500;28;20038;-86
2022/06/25 06:12:27;;;;;;;9.52;7.93;;;;;;;;;;4960815;28;20034;-87
2022/06/25 06:14:52;;;;;;;9.63;7.78;;;;;;;;;;4975358;28;20085;-86
2022/06/25 06:17:18;;;;;;;10.60;7.78;;;;;;;;;;4958963;28;20043;-87
2022/06/25 06:19:43;;;;;;;9.43;7.20;;;;;;;;;;4955714;28;20042;-85
2022/06/25 06:22:08;;;;;;;9.73;7.88;;;;;;;;;;4960818;28;20054;-87
2022/06/25 06:24:34;;;;;;;9.18;7.43;;;;;;;;;;4972399;28;20416;-87
2022/06/25 06:27:01;;;;;;;9.57;7.57;;;;;;;;;;4987338;28;20783;-86
2022/06/25 06:29:28;;;;;;;12.73;8.05;;;;;;;;;;4987991;28;20041;-86
2022/06/25 06:31:53;;;;;;;8.80;7.20;;;;;;;;;;4972408;28;20054;-87
2022/06/25 06:34:19;;;;;;;10.07;7.10;;;;;;;;;;4976598;28;20812;-86
2022/06/25 06:36:44;;;;;;;9.27;7.43;;;;;;;;;;4986974;28;20512;-85
2022/06/25 06:39:10;;;;;;;9.18;7.53;;;;;;;;;;4977465;28;20478;-87
2022/06/25 06:41:35;;;;;;;9.23;7.15;;;;;;;;;;4976115;28;20061;-87
2022/06/25 06:44:01;;;;;;;8.75;7.18;;;;;;;;;;4978900;28;20030;-86
2022/06/25 06:46:26;;;;;;;9.98;7.28;;;;;;;;;;4992420;28;20406;-86
2022/06/25 06:48:51;;;;;;;8.00;6.90;;;;;;;;;;4976159;28;20034;-86
2022/06/25 06:51:17;;;;;;;8.65;6.75;;;;;;;;;;4975564;28;20489;-87
2022/06/25 06:53:42;;;;;;;8.10;6.78;;;;;;;;;;4975948;28;20034;-86
2022/06/25 06:56:08;;;;;;;9.23;6.68;;;;;;;;;;4981991;28;20045;-87
2022/06/25 06:58:33;;;;;;;8.80;7.00;;;;;;;;;;4975701;28;20033;-86
2022/06/25 07:00:59;;;;;;;7.80;6.88;;;;;;;;;;4979063;28;20470;-88
2022/06/25 07:03:25;;;;;;;8.35;6.30;;;;;;;;;;4993190;28;20404;-87
2022/06/25 07:05:50;;;;;;;7.68;6.40;;;;;;;;;;4981160;28;20091;-86
2022/06/25 07:08:16;;;;;;;8.10;6.38;;;;;;;;;;4985631;28;20064;-85
2022/06/25 07:10:41;;;;;;;7.53;6.35;;;;;;;;;;4980417;28;20042;-87
2022/06/25 07:13:07;;;;;;;8.20;6.68;;;;;;;;;;4966656;28;20038;-87
2022/06/25 07:15:32;;;;;;;7.35;5.82;;;;;;;;;;4985817;28;20060;-88
2022/06/25 07:17:58;;;;;;;7.18;5.57;;;;;;;;;;4977324;28;20042;-87
2022/06/25 07:20:23;;;;;;;7.97;5.85;;;;;;;;;;4975026;28;20117;-87
2022/06/25 07:22:49;;;;;;;7.25;5.55;;;;;;;;;;4985732;28;20042;-87
2022/06/25 07:25:14;;;;;;;6.70;5.43;;;;;;;;;;4947444;28;20026;-89
2022/06/25 07:27:44;;;;;;;7.90;4.97;;;;;;;;;;4970210;28;20030;-88
2022/06/25 07:30:10;;;;;;;5.80;4.88;;;;;;;;;;4947755;28;20137;-87
2022/06/25 07:32:35;;;;;;;6.63;5.07;;;;;;;;;;4955754;28;20026;-87
2022/06/25 07:35:07;;;;;;;5.82;4.63;;;;;;;;;;4957015;28;20049;-91
2022/06/25 07:37:44;;;;;;;6.45;4.80;;;;;;;;;;4927811;28;20039;-90
2022/06/25 07:40:12;;;;;;;8.05;5.13;;;;;;;;;;4944497;28;20076;-89
2022/06/25 07:42:38;;;;;;;5.80;4.53;;;;;;;;;;4968049;28;20398;-92
2022/06/25 07:45:04;;;;;;;6.88;5.00;;;;;;;;;;4951143;28;20034;-91
2022/06/25 07:47:36;;;;;;;5.93;4.47;;;;;;;;;;4958953;28;20903;-93
2022/06/25 07:52:48;;;;;;;6.45;4.20;;;;;;;;;;4970967;28;20069;-90
2022/06/25 07:55:13;;;;;;;4.80;3.58;;;;;;;;;;4959154;28;20066;-91
2022/06/25 07:57:39;;;;;;;4.10;3.13;;;;;;;;;;4959895;28;20034;-92
2022/06/25 08:00:05;;;;;;;5.80;3.50;;;;;;;;;;4965196;28;20520;-91
2022/06/25 08:02:30;;;;;;;5.15;3.88;;;;;;;;;;4943791;28;20430;-91
2022/06/25 08:05:00;;;;;;;4.78;3.92;;;;;;;;;;4959897;28;20037;-91
2022/06/25 08:07:25;;;;;;;5.22;3.88;;;;;;;;;;4956852;28;20045;-89
2022/06/25 08:09:52;;;;;;;4.65;3.63;;;;;;;;;;4971404;28;20050;-91
2022/06/25 08:12:44;;;;;;;5.63;4.28;;;;;;;;;;4949827;28;20090;-90
2022/06/25 08:15:14;;;;;;;5.43;4.25;;;;;;;;;;4963802;28;21241;-90
2022/06/25 08:17:39;;;;;;;5.22;3.92;;;;;;;;;;4953568;28;20109;-89
2022/06/25 08:20:05;;;;;;;6.45;3.85;;;;;;;;;;4964490;28;20126;-89
2022/06/25 08:22:30;;;;;;;4.95;3.70;;;;;;;;;;4958651;28;20078;-91
2022/06/25 08:24:59;;;;;;;5.70;3.55;;;;;;;;;;4932461;28;20145;-89
2022/06/25 08:27:25;;;;;;;5.68;3.88;;;;;;;;;;4930367;28;20502;-88
2022/06/25 08:29:54;;;;;;;6.35;4.10;;;;;;;;;;4954824;28;20046;-89
2022/06/25 08:32:22;;;;;;;4.88;3.88;;;;;;;;;;4952384;28;20034;-89
2022/06/25 08:34:48;;;;;;;5.85;4.40;;;;;;;;;;4954214;28;20054;-90
2022/06/25 08:37:13;;;;;;;5.43;4.07;;;;;;;;;;4953271;28;20450;-91
2022/06/25 08:39:39;;;;;;;5.18;4.20;;;;;;;;;;4953227;28;20034;-86
2022/06/25 08:42:05;;;;;;;5.40;3.95;;;;;;;;;;4956998;28;20041;-88
2022/06/25 08:44:30;;;;;;;6.20;4.28;;;;;;;;;;4962326;28;20042;-88
2022/06/25 08:46:58;;;;;;;5.65;4.25;;;;;;;;;;4946320;28;20061;-86
2022/06/25 08:49:23;;;;;;;8.13;4.93;;;;;;;;;;4955611;28;20042;-87
2022/06/25 08:51:54;;;;;;;6.25;4.70;;;;;;;;;;4953201;28;20097;-89
2022/06/25 08:54:20;;;;;;;7.97;5.15;;;;;;;;;;4953151;28;20038;-88
2022/06/25 08:56:46;;;;;;;6.03;4.75;;;;;;;;;;4946532;28;20038;-86
2022/06/25 08:59:12;;;;;;;7.35;5.00;;;;;;;;;;4952835;28;20065;-86
2022/06/25 09:01:40;;;;;;;5.70;4.38;;;;;;;;;;4958477;28;20034;-87
2022/06/25 09:04:05;;;;;;;5.72;4.50;;;;;;;;;;4953620;28;20402;-87
2022/06/25 09:06:31;;;;;;;7.05;5.05;;;;;;;;;;4957680;28;20129;-87
2022/06/25 09:09:09;;;;;;;5.78;4.50;;;;;;;;;;4951317;28;20073;-87
2022/06/25 09:11:50;;;;;;;6.95;4.60;;;;;;;;;;4952544;28;20445;-88
2022/06/25 09:14:27;;;;;;;6.47;4.25;;;;;;;;;;4953337;28;20061;-87
2022/06/25 09:17:06;;;;;;;7.13;3.97;;;;;;;;;;4968757;28;20039;-88
2022/06/25 09:19:35;;;;;;;6.40;4.40;;;;;;;;;;4968943;28;20501;-89
2022/06/25 09:22:06;;;;;;;7.55;5.07;;;;;;;;;;4954331;28;20038;-87
2022/06/25 09:24:51;;;;;;;6.75;4.65;;;;;;;;;;4972075;28;20042;-87
2022/06/25 09:27:38;;;;;;;5.57;4.47;;;;;;;;;;4969198;28;20041;-89
2022/06/25 09:30:19;;;;;;;6.25;4.78;;;;;;;;;;4975068;28;20464;-89
2022/06/25 09:32:49;;;;;;;6.82;4.90;;;;;;;;;;4986267;28;20041;-88
2022/06/25 09:35:31;;;;;;;6.88;5.20;;;;;;;;;;5003237;28;20038;-88
2022/06/25 09:38:05;;;;;;;7.78;5.97;;;;;;;;;;4970756;28;20405;-88
2022/06/25 09:40:31;;;;;;;7.43;5.30;;;;;;;;;;4978273;28;20041;-88
2022/06/25 09:42:57;;;;;;;7.72;5.85;;;;;;;;;;4973800;28;20034;-87
2022/06/25 09:45:23;;;;;;;7.43;5.80;;;;;;;;;;4975928;28;20034;-87
2022/06/25 09:47:48;;;;;;;7.93;6.10;;;;;;;;;;4971412;28;20092;-87
2022/06/25 09:50:18;;;;;;;7.90;6.20;;;;;;;;;;4974726;28;20404;-87
2022/06/25 09:52:55;;;;;;;7.07;5.63;;;;;;;;;;4971341;28;20123;-88
2022/06/25 09:55:22;;;;;;;;;;;;;;;;;;4965503;28;20117;-87
2022/06/25 09:57:48;;;;;;;8.17;5.93;;;;;;;;;;4972080;28;19921;-88
2022/06/25 10:00:17;;;;;;;8.57;5.95;;;;;;;;;;4971692;28;20428;-86
2022/06/25 10:02:45;;;;;;;10.30;6.60;;;;;;;;;;4965974;28;20044;-88
2022/06/25 10:05:11;;;;;;;7.72;5.93;;;;;;;;;;4969762;28;20042;-85
2022/06/25 10:10:22;;;;;;;7.85;6.13;;;;;;;;;;5007812;28;20388;-86
2022/06/25 10:12:49;;;;;;;7.00;5.75;;;;;;;;;;4983214;28;20481;-86
2022/06/25 10:15:17;;;;;;;7.65;5.72;;;;;;;;;;4967861;28;20036;-85
2022/06/25 10:17:44;;;;;;;7.85;6.00;;;;;;;;;;4973965;28;20057;-85
2022/06/25 10:20:10;;;;;;;6.93;6.03;;;;;;;;;;4974567;28;20042;-83
2022/06/25 10:22:37;;;;;;;7.75;6.28;;;;;;;;;;4970513;28;20057;-83
2022/06/25 10:25:03;;;;;;;8.38;6.18;;;;;;;;;;5007621;28;20120;-84
2022/06/25 10:27:28;;;;;;;7.55;6.07;;;;;;;;;;5001059;28;20492;-84
2022/06/25 10:29:59;;;;;;;7.13;5.43;;;;;;;;;;4996034;28;20042;-85
2022/06/25 10:32:24;;;;;;;7.65;6.03;;;;;;;;;;4990888;28;20033;-85
2022/06/25 10:34:57;;;;;;;7.78;5.82;;;;;;;;;;4994508;28;20501;-84
2022/06/25 10:37:22;;;;;;;7.57;6.07;;;;;;;;;;4989835;28;20042;-83
2022/06/25 10:39:57;;;;;;;7.45;6.32;;;;;;;;;;4991365;28;20176;-83
2022/06/25 10:45:11;;;;;;;8.27;6.43;;;;;;;;;;5008284;28;22407;-85
2022/06/25 10:48:00;;;;;;;8.20;6.50;;;;;;;;;;5006651;28;20038;-84
2022/06/25 10:50:33;;;;;;;8.05;6.22;;;;;;;;;;5022076;28;20045;-86
2022/06/25 10:53:10;;;;;;;9.00;6.45;;;;;;;;;;4989614;28;20088;-87
2022/06/25 10:55:40;;;;;;;7.97;6.72;;;;;;;;;;5007152;28;20045;-85
2022/06/25 10:58:16;;;;;;;8.20;6.47;;;;;;;;;;4990585;28;20048;-85
2022/06/25 11:01:00;;;;;;;8.23;6.45;;;;;;;;;;4982537;28;20132;-85
2022/06/25 11:03:31;;;;;;;7.80;6.22;;;;;;;;;;5006378;28;20055;-85
2022/06/25 11:05:59;;;;;;;8.23;6.30;;;;;;;;;;5005560;28;20512;-85
2022/06/25 11:08:33;;;;;;;;;;;;;;;;;;4990480;28;20114;-85
2022/06/25 11:10:59;;;;;;;8.52;6.18;;;;;;;;;;4989106;28;19924;-85
2022/06/25 11:13:24;;;;;;;7.10;5.78;;;;;;;;;;4990036;28;20037;-85
2022/06/25 11:15:50;;;;;;;6.75;5.75;;;;;;;;;;4990974;28;20034;-84
2022/06/25 11:18:15;;;;;;;6.70;5.90;;;;;;;;;;4982075;28;20054;-84
2022/06/25 11:20:42;;;;;;;8.00;5.95;;;;;;;;;;4990312;28;20049;-84
2022/06/25 11:23:13;;;;;;;7.25;5.80;;;;;;;;;;4990134;28;20532;-85
2022/06/25 11:28:57;;;;;;;8.25;5.95;;;;;;;;;;5006381;28;20092;-87
2022/06/25 11:31:26;;;;;;;7.82;6.40;;;;;;;;;;4962586;28;20049;-89
2022/06/25 11:33:53;;;;;;;8.70;6.25;;;;;;;;;;4980289;28;20037;-88
2022/06/25 11:36:19;;;;;;;8.38;6.13;;;;;;;;;;4990339;28;20033;-87
2022/06/25 11:38:53;;;;;;;9.05;6.45;;;;;;;;;;4990194;28;20030;-88
2022/06/25 11:41:20;;;;;;;8.52;5.95;;;;;;;;;;4989113;28;20064;-88
2022/06/25 11:43:45;;;;;;;9.02;6.47;;;;;;;;;;4984518;28;20030;-86
2022/06/25 11:46:18;;;;;;;9.38;6.38;;;;;;;;;;5003099;28;20125;-86
2022/06/25 11:48:46;;;;;;;7.22;5.57;;;;;;;;;;5000947;28;20117;-88
2022/06/25 11:51:13;;;;;;;8.73;6.57;;;;;;;;;;4989071;28;20115;-87
2022/06/25 11:53:40;;;;;;;7.38;5.95;;;;;;;;;;4997146;28;20378;-89
2022/06/25 11:56:06;;;;;;;7.60;6.18;;;;;;;;;;4981960;28;20041;-87
2022/06/25 11:58:33;;;;;;;7.95;6.32;;;;;;;;;;4997063;28;20045;-85
2022/06/25 12:00:59;;;;;;;;;;;;;;;;;;5006079;28;20033;-85
2022/06/25 12:03:26;;;;;;;7.90;6.30;;;;;;;;;;4988850;28;20323;-85
2022/06/25 12:05:52;;;;;;;7.78;5.85;;;;;;;;;;5002755;28;20053;-85
2022/06/25 12:08:18;;;;;;;8.15;5.82;;;;;;;;;;4978700;28;20405;-84
2022/06/25 12:10:45;;;;;;;7.82;5.93;;;;;;;;;;5005367;28;20046;-83
2022/06/25 12:13:16;;;;;;;6.90;5.88;;;;;;;;;;5005442;28;20042;-87
2022/06/25 12:15:41;;;;;;;9.23;6.18;;;;;;;;;;4966114;28;20112;-84
2022/06/25 12:18:07;;;;;;;6.82;5.53;;;;;;;;;;4989579;28;20743;-85
2022/06/25 12:20:33;;;;;;;7.80;5.55;;;;;;;;;;4988368;28;20034;-84
2022/06/25 12:23:00;;;;;;;7.57;5.90;;;;;;;;;;4984314;28;20041;-85
2022/06/25 12:25:30;;;;;;;7.47;5.07;;;;;;;;;;4971854;28;20099;-83
2022/06/25 12:27:55;;;;;;;6.07;5.05;;;;;;;;;;4965271;28;20048;-83
2022/06/25 12:30:31;;;;;;;7.45;5.57;;;;;;;;;;4988665;28;20045;-83
2022/06/25 12:33:13;;;;;;;6.80;5.30;;;;;;;;;;4965276;28;20025;-82
2022/06/25 12:35:43;;;;;;;6.38;5.20;;;;;;;;;;4989256;28;20037;-81
2022/06/25 12:38:13;;;;;;;7.95;5.30;;;;;;;;;;4962906;28;20030;-81
2022/06/25 12:40:42;;;;;;;6.40;5.22;;;;;;;;;;4971775;28;20164;-81
2022/06/25 12:43:09;;;;;;;6.90;5.03;;;;;;;;;;4972268;28;20053;-81
2022/06/25 12:45:35;;;;;;;6.07;4.30;;;;;;;;;;4971042;28;20052;-84
2022/06/25 12:48:01;;;;;;;6.40;4.50;;;;;;;;;;5004081;28;20034;-84
2022/06/25 12:50:29;;;;;;;6.13;4.47;;;;;;;;;;4964879;28;20057;-85
2022/06/25 12:52:55;;;;;;;6.25;4.80;;;;;;;;;;4963530;28;20117;-84
2022/06/25 12:55:23;;;;;;;6.13;4.65;;;;;;;;;;4971351;28;20042;-83
2022/06/25 12:57:49;;;;;;;5.78;4.20;;;;;;;;;;4971869;28;20057;-83
2022/06/25 13:00:24;;;;;;;6.15;4.93;;;;;;;;;;4979421;28;20091;-82
2022/06/25 13:02:49;;;;;;;6.75;4.47;;;;;;;;;;4973326;28;20103;-84
2022/06/25 13:05:16;;;;;;;6.18;4.50;;;;;;;;;;4980645;28;20064;-85
2022/06/25 13:07:41;;;;;;;6.97;4.90;;;;;;;;;;4987402;28;20045;-84
2022/06/25 13:10:07;;;;;;;5.78;4.75;;;;;;;;;;4971069;28;20042;-84
2022/06/25 13:12:32;;;;;;;6.72;5.05;;;;;;;;;;4982111;28;20053;-86
2022/06/25 13:14:58;;;;;;;6.47;4.38;;;;;;;;;;4971713;28;20164;-85
2022/06/25 13:17:23;;;;;;;6.35;4.40;;;;;;;;;;4981783;28;20040;-85
2022/06/25 13:19:49;;;;;;;5.63;4.85;;;;;;;;;;4972233;28;20042;-86
2022/06/25 13:22:14;;;;;;;6.03;4.70;;;;;;;;;;4971549;28;20054;-85
2022/06/25 13:24:40;;;;;;;6.15;4.65;;;;;;;;;;4971706;28;20544;-85
2022/06/25 13:27:05;;;;;;;6.47;4.63;;;;;;;;;;4974674;28;20393;-84
2022/06/25 13:29:31;;;;;;;6.30;4.50;;;;;;;;;;4973131;28;20037;-86
2022/06/25 13:31:59;;;;;;;5.82;4.43;;;;;;;;;;4970985;28;20041;-85
2022/06/25 13:34:25;;;;;;;6.43;4.60;;;;;;;;;;4987189;28;20500;-86
2022/06/25 13:36:51;;;;;;;5.57;4.33;;;;;;;;;;4971838;28;20054;-84
2022/06/25 13:39:16;;;;;;;6.75;4.68;;;;;;;;;;4971320;28;20886;-85
2022/06/25 13:41:44;;;;;;;5.65;4.53;;;;;;;;;;4972948;28;20038;-85
2022/06/25 13:44:10;;;;;;;7.35;5.00;;;;;;;;;;4976547;28;20034;-85
2022/06/25 13:46:48;;;;;;;5.88;4.75;;;;;;;;;;4984617;28;20235;-85
2022/06/25 13:49:14;;;;;;;5.85;4.43;;;;;;;;;;4995480;28;20038;-85
2022/06/25 13:51:39;;;;;;;5.63;4.47;;;;;;;;;;4977259;28;20041;-85
2022/06/25 13:54:05;;;;;;;6.68;4.50;;;;;;;;;;4975027;28;20042;-85
2022/06/25 13:56:32;;;;;;;6.60;4.50;;;;;;;;;;4967001;28;20461;-86
2022/06/25 13:58:57;;;;;;;6.30;4.28;;;;;;;;;;4991274;28;20037;-85
2022/06/25 14:01:23;;;;;;;6.13;4.20;;;;;;;;;;4991131;28;20088;-86
2022/06/25 14:03:48;;;;;;;4.95;3.85;;;;;;;;;;4985834;28;20041;-86
2022/06/25 14:06:16;;;;;;;5.20;4.20;;;;;;;;;;4981022;28;20037;-84
2022/06/25 14:08:41;;;;;;;5.90;3.85;;;;;;;;;;4980294;28;20109;-84
2022/06/25 14:11:10;;;;;;;5.38;4.10;;;;;;;;;;5007183;28;20041;-83
2022/06/25 14:13:35;;;;;;;5.10;3.95;;;;;;;;;;4989899;28;20473;-85
2022/06/25 14:16:01;;;;;;;4.95;4.00;;;;;;;;;;4973990;28;20038;-84
2022/06/25 14:18:26;;;;;;;6.07;4.22;;;;;;;;;;4991094;28;20037;-84
2022/06/25 14:20:52;;;;;;;5.40;4.35;;;;;;;;;;4977266;28;20033;-85
2022/06/25 14:23:17;;;;;;;5.70;4.03;;;;;;;;;;4986542;28;20046;-88
2022/06/25 14:25:43;;;;;;;5.75;3.92;;;;;;;;;;4976956;28;20038;-88
2022/06/25 14:28:08;;;;;;;7.25;4.30;;;;;;;;;;4989278;28;20069;-89
2022/06/25 14:30:34;;;;;;;5.68;3.83;;;;;;;;;;5006111;28;20030;-89
2022/06/25 14:33:01;;;;;;;6.50;4.30;;;;;;;;;;4990802;28;20033;-88
2022/06/25 14:35:26;;;;;;;4.88;3.78;;;;;;;;;;4986743;28;20042;-89
2022/06/25 14:43:25;;;;;;;6.55;4.68;;;;;;;;;;4998955;28;20416;-85
2022/06/25 14:45:50;;;;;;;;;;;;;;;;;;5006901;28;20136;-84
2022/06/25 14:48:16;;;;;;;6.10;4.90;;;;;;;;;;5007706;28;19971;-84
2022/06/25 14:50:41;;;;;;;5.97;4.47;;;;;;;;;;4982311;28;20477;-84
2022/06/25 14:53:07;;;;;;;6.35;4.28;;;;;;;;;;4989931;28;20038;-85
2022/06/25 14:55:32;;;;;;;5.60;4.43;;;;;;;;;;4984175;28;20049;-85
2022/06/25 14:58:00;;;;;;;6.05;3.90;;;;;;;;;;4984362;28;20029;-84
2022/06/25 15:00:26;;;;;;;5.65;4.10;;;;;;;;;;4989346;28;20049;-82
2022/06/25 15:02:51;;;;;;;4.68;3.50;;;;;;;;;;5002250;28;20405;-85
2022/06/25 15:05:19;;;;;;;4.80;3.15;;;;;;;;;;4990218;28;20436;-83
2022/06/25 15:07:44;;;;;;;5.57;3.80;;;;;;;;;;4983573;28;20034;-83
2022/06/25 15:10:09;;;;;;;5.45;3.88;;;;;;;;;;4989889;28;20114;-83
2022/06/25 15:12:35;;;;;;;4.90;3.58;;;;;;;;;;4990118;28;20116;-84